createdAt,value
2022-12-25T00:00:20.763Z,86.83
2022-12-25T00:01:23.152Z,85.32
2022-12-25T00:03:25.810Z,85.57
2022-12-25T00:04:27.072Z,84.30
2022-12-25T00:05:27.939Z,80.40
2022-12-25T00:06:29.081Z,85.20
2022-12-25T00:07:30.120Z,77.28
2022-12-25T00:08:31.560Z,82.05
2022-12-25T00:09:32.405Z,81.60
2022-12-25T00:10:33.546Z,85.50
2022-12-25T00:11:34.420Z,83.15
2022-12-25T00:12:36.260Z,80.93
2022-12-25T00:13:37.382Z,82.03
2022-12-25T00:14:38.544Z,83.28
2022-12-25T00:15:39.977Z,81.65
2022-12-25T00:16:41.323Z,80.20
2022-12-25T00:17:42.237Z,80.18
2022-12-25T00:18:43.349Z,82.53
2022-12-25T00:19:44.177Z,81.25
2022-12-25T00:20:45.336Z,82.20
2022-12-25T00:21:46.207Z,83.53
2022-12-25T00:22:47.358Z,82.00
2022-12-25T00:23:52.189Z,82.72
2022-12-25T00:24:53.325Z,86.80
2022-12-25T00:25:54.205Z,84.38
2022-12-25T00:26:55.341Z,80.57
2022-12-25T00:27:56.897Z,78.55
2022-12-25T00:28:58.462Z,80.00
2022-12-25T00:29:59.509Z,80.78
2022-12-25T00:31:03.757Z,78.63
2022-12-25T00:32:04.700Z,77.07
2022-12-25T00:33:05.917Z,75.57
2022-12-25T00:34:06.774Z,74.43
2022-12-25T00:35:08.297Z,75.63
2022-12-25T00:36:09.872Z,75.75
2022-12-25T00:37:11.060Z,75.60
2022-12-25T00:38:11.944Z,74.50
2022-12-25T00:39:13.068Z,70.97
2022-12-25T00:40:13.907Z,71.68
2022-12-25T00:41:15.944Z,70.13
2022-12-25T00:43:21.770Z,66.72
2022-12-25T00:44:22.587Z,68.82
2022-12-25T00:45:23.980Z,68.00
2022-12-25T00:46:24.875Z,70.80
2022-12-25T00:47:26.173Z,70.88
2022-12-25T00:48:28.070Z,67.90
2022-12-25T00:49:29.202Z,67.82
2022-12-25T00:50:30.093Z,71.07
2022-12-25T00:51:31.261Z,67.30
2022-12-25T00:52:32.089Z,65.32
2022-12-25T00:53:33.252Z,69.60
2022-12-25T00:54:34.317Z,67.95
2022-12-25T00:55:35.441Z,69.37
2022-12-25T00:56:36.314Z,65.55
2022-12-25T00:57:37.439Z,66.20
2022-12-25T00:58:38.966Z,64.93
2022-12-25T00:59:40.113Z,64.60
2022-12-25T01:00:41.021Z,62.63
2022-12-25T01:01:42.444Z,65.23
2022-12-25T01:02:43.611Z,68.55
2022-12-25T01:03:44.867Z,64.65
2022-12-25T01:04:45.719Z,65.68
2022-12-25T01:05:54.445Z,68.00
2022-12-25T01:06:55.274Z,66.88
2022-12-25T01:07:56.393Z,66.90
2022-12-25T01:09:15.891Z,63.40
2022-12-25T01:10:22.806Z,64.00
2022-12-25T01:11:23.651Z,61.60
2022-12-25T01:12:24.795Z,61.10
2022-12-25T01:13:26.188Z,62.08
2022-12-25T01:14:27.728Z,63.00
2022-12-25T01:15:28.871Z,62.13
2022-12-25T01:16:29.761Z,60.45
2022-12-25T01:17:30.999Z,58.10
2022-12-25T01:18:32.240Z,59.20
2022-12-25T01:19:33.145Z,56.85
2022-12-25T01:20:34.745Z,59.35
2022-12-25T01:21:35.631Z,57.15
2022-12-25T01:22:36.782Z,57.78
2022-12-25T01:23:37.746Z,56.80
2022-12-25T01:24:38.959Z,57.17
2022-12-25T01:25:39.808Z,55.92
2022-12-25T01:26:40.927Z,55.67
2022-12-25T01:27:41.887Z,58.03
2022-12-25T01:28:43.315Z,56.17
2022-12-25T01:29:45.807Z,56.88
2022-12-25T01:30:49.969Z,55.25
2022-12-25T01:31:50.846Z,54.13
2022-12-25T01:32:52.026Z,56.00
2022-12-25T01:33:52.894Z,56.70
2022-12-25T01:34:56.381Z,55.97
2022-12-25T01:35:57.923Z,56.13
2022-12-25T01:36:59.119Z,55.35
2022-12-25T01:38:00.601Z,56.33
2022-12-25T01:39:01.743Z,54.03
2022-12-25T01:40:02.859Z,58.45
2022-12-25T01:41:04.141Z,54.53
2022-12-25T01:42:05.015Z,56.13
2022-12-25T01:43:06.305Z,55.88
2022-12-25T01:44:27.940Z,57.05
2022-12-25T01:45:34.067Z,54.72
2022-12-25T01:46:35.189Z,56.05
2022-12-25T01:47:36.320Z,56.08
2022-12-25T01:48:38.606Z,54.80
2022-12-25T01:49:40.865Z,55.70
2022-12-25T01:50:43.972Z,55.72
2022-12-25T01:51:47.305Z,57.53
2022-12-25T01:52:49.013Z,52.03
2022-12-25T01:53:50.013Z,54.90
2022-12-25T01:54:53.313Z,55.40
2022-12-25T01:55:57.126Z,51.47
2022-12-25T01:57:00.021Z,54.10
2022-12-25T01:58:01.437Z,54.75
2022-12-25T01:59:02.952Z,55.75
2022-12-25T02:00:05.068Z,56.00
2022-12-25T02:01:07.710Z,54.22
2022-12-25T02:02:08.814Z,54.20
2022-12-25T02:03:10.092Z,55.63
2022-12-25T02:04:14.323Z,57.28
2022-12-25T02:05:17.885Z,52.88
2022-12-25T02:06:18.759Z,55.83
2022-12-25T02:07:20.964Z,53.60
2022-12-25T02:08:22.739Z,53.78
2022-12-25T02:09:23.876Z,53.08
2022-12-25T02:10:24.723Z,54.33
2022-12-25T02:11:40.476Z,54.65
2022-12-25T02:12:42.144Z,54.38
2022-12-25T02:13:42.988Z,53.05
2022-12-25T02:14:44.433Z,52.80
2022-12-25T02:17:14.299Z,52.33
2022-12-25T02:18:18.855Z,51.30
2022-12-25T02:19:30.980Z,51.60
2022-12-25T02:20:52.803Z,52.28
2022-12-25T02:22:00.687Z,51.55
2022-12-25T02:23:12.725Z,52.42
2022-12-25T02:24:25.723Z,49.60
2022-12-25T02:25:32.465Z,52.15
2022-12-25T02:26:47.708Z,51.85
2022-12-25T02:28:00.703Z,49.65
2022-12-25T02:29:04.501Z,49.55
2022-12-25T02:30:06.442Z,51.92
2022-12-25T02:32:12.639Z,49.53
2022-12-25T02:33:33.254Z,49.75
2022-12-25T02:34:37.794Z,50.47
2022-12-25T02:35:39.262Z,49.65
2022-12-25T02:36:42.125Z,50.13
2022-12-25T02:37:45.490Z,49.30
2022-12-25T02:39:03.852Z,48.67
2022-12-25T02:40:08.878Z,49.50
2022-12-25T02:41:13.395Z,49.55
2022-12-25T02:42:17.234Z,50.00
2022-12-25T02:43:39.198Z,48.50
2022-12-25T02:44:59.494Z,47.85
2022-12-25T02:46:20.990Z,48.35
2022-12-25T02:47:41.564Z,49.92
2022-12-25T02:49:04.841Z,47.30
2022-12-25T02:50:26.051Z,49.67
2022-12-25T02:51:46.927Z,48.22
2022-12-25T02:53:06.748Z,46.70
2022-12-25T02:54:28.021Z,47.40
2022-12-25T02:55:50.584Z,47.15
2022-12-25T02:57:10.520Z,46.70
2022-12-25T02:58:31.378Z,48.45
2022-12-25T02:59:53.508Z,49.28
2022-12-25T03:01:11.611Z,46.53
2022-12-25T03:02:46.119Z,46.58
2022-12-25T03:04:07.486Z,46.78
2022-12-25T03:05:28.512Z,47.42
2022-12-25T03:06:42.913Z,47.47
2022-12-25T03:07:44.367Z,46.28
2022-12-25T03:08:47.070Z,46.50
2022-12-25T03:10:07.762Z,45.75
2022-12-25T03:11:28.190Z,47.50
2022-12-25T03:12:38.925Z,45.90
2022-12-25T03:13:41.388Z,43.88
2022-12-25T03:15:01.849Z,42.13
2022-12-25T03:16:21.298Z,41.42
2022-12-25T03:17:22.485Z,41.03
2022-12-25T03:18:25.145Z,41.03
2022-12-25T03:19:47.324Z,40.88
2022-12-25T03:21:06.986Z,41.28
2022-12-25T03:22:27.860Z,39.03
2022-12-25T03:23:49.128Z,39.17
2022-12-25T03:25:08.376Z,38.95
2022-12-25T03:26:27.770Z,41.10
2022-12-25T03:27:30.380Z,40.33
2022-12-25T03:28:31.227Z,37.85
2022-12-25T03:29:51.637Z,37.07
2022-12-25T03:31:13.287Z,40.05
2022-12-25T03:32:18.072Z,38.20
2022-12-25T03:33:43.784Z,37.88
2022-12-25T03:35:02.216Z,37.08
2022-12-25T03:36:09.700Z,39.67
2022-12-25T03:37:50.684Z,37.65
2022-12-25T03:39:16.600Z,36.47
2022-12-25T03:40:41.755Z,36.97
2022-12-25T03:42:03.587Z,35.60
2022-12-25T03:43:31.487Z,36.40
2022-12-25T03:44:59.799Z,35.47
2022-12-25T03:46:22.376Z,35.78
2022-12-25T03:47:44.161Z,36.10
2022-12-25T03:49:05.648Z,36.85
2022-12-25T03:50:27.035Z,34.65
2022-12-25T03:51:48.487Z,32.42
2022-12-25T03:53:09.443Z,36.67
2022-12-25T03:54:29.445Z,34.25
2022-12-25T03:55:49.400Z,32.80
2022-12-25T03:57:08.747Z,34.13
2022-12-25T03:58:34.577Z,35.67
2022-12-25T04:00:02.316Z,32.50
2022-12-25T04:01:22.620Z,34.95
2022-12-25T04:02:41.942Z,34.55
2022-12-25T04:04:01.667Z,33.33
2022-12-25T04:05:21.084Z,35.28
2022-12-25T04:06:40.545Z,33.80
2022-12-25T04:07:59.919Z,34.92
2022-12-25T04:09:19.273Z,34.72
2022-12-25T04:10:43.945Z,36.40
2022-12-25T04:12:03.481Z,34.45
2022-12-25T04:13:22.693Z,31.25
2022-12-25T04:14:42.779Z,33.47
2022-12-25T04:16:02.278Z,33.28
2022-12-25T04:17:22.246Z,26.48
2022-12-25T04:18:38.194Z,29.33
2022-12-25T04:19:57.399Z,31.08
2022-12-25T04:21:16.992Z,31.35
2022-12-25T04:22:36.428Z,31.27
2022-12-25T04:23:55.821Z,32.17
2022-12-25T04:25:15.107Z,30.73
2022-12-25T04:26:46.059Z,25.70
2022-12-25T04:28:04.743Z,31.15
2022-12-25T04:29:23.940Z,31.27
2022-12-25T04:30:43.143Z,30.20
2022-12-25T04:32:16.892Z,29.90
2022-12-25T04:33:36.884Z,31.90
2022-12-25T04:34:56.167Z,30.40
2022-12-25T04:36:09.656Z,32.15
2022-12-25T04:37:10.529Z,33.00
2022-12-25T04:38:11.694Z,32.90
2022-12-25T04:39:12.544Z,32.03
2022-12-25T04:40:13.795Z,31.47
2022-12-25T04:41:14.648Z,32.80
2022-12-25T04:42:16.010Z,30.67
2022-12-25T04:43:16.931Z,32.63
2022-12-25T04:44:18.090Z,31.52
2022-12-25T04:45:18.978Z,30.73
2022-12-25T04:46:20.155Z,32.13
2022-12-25T04:47:21.068Z,31.38
2022-12-25T04:48:22.897Z,33.00
2022-12-25T04:49:23.750Z,31.30
2022-12-25T04:50:24.873Z,32.97
2022-12-25T04:51:25.901Z,31.75
2022-12-25T04:52:27.160Z,31.45
2022-12-25T04:53:28.104Z,30.58
2022-12-25T04:54:29.974Z,31.77
2022-12-25T04:55:30.874Z,31.73
2022-12-25T04:56:32.812Z,33.28
2022-12-25T04:57:33.862Z,32.88
2022-12-25T04:58:35.152Z,32.63
2022-12-25T04:59:36.133Z,30.98
2022-12-25T05:00:37.424Z,33.08
2022-12-25T05:01:38.435Z,32.90
2022-12-25T05:02:39.835Z,31.48
2022-12-25T05:03:41.906Z,30.67
2022-12-25T05:04:43.284Z,32.20
2022-12-25T05:05:44.112Z,31.48
2022-12-25T05:06:45.269Z,32.30
2022-12-25T05:07:46.128Z,32.30
2022-12-25T05:08:47.350Z,32.20
2022-12-25T05:09:48.327Z,30.27
2022-12-25T05:10:49.493Z,31.23
2022-12-25T05:11:50.414Z,27.30
2022-12-25T05:12:51.709Z,29.73
2022-12-25T05:13:52.622Z,31.55
2022-12-25T05:14:53.945Z,31.47
2022-12-25T05:15:54.877Z,31.23
2022-12-25T05:16:56.167Z,30.60
2022-12-25T05:17:57.044Z,28.83
2022-12-25T05:18:58.873Z,28.75
2022-12-25T05:19:59.798Z,30.25
2022-12-25T05:21:01.032Z,29.00
2022-12-25T05:22:02.137Z,28.27
2022-12-25T05:23:04.079Z,29.27
2022-12-25T05:24:05.276Z,28.70
2022-12-25T05:25:06.811Z,27.65
2022-12-25T05:26:07.659Z,27.15
2022-12-25T05:27:08.878Z,28.15
2022-12-25T05:28:09.807Z,28.38
2022-12-25T05:29:11.021Z,27.70
2022-12-25T05:30:12.134Z,29.70
2022-12-25T05:31:13.435Z,29.27
2022-12-25T05:32:14.281Z,28.15
2022-12-25T05:33:15.408Z,28.23
2022-12-25T05:34:16.928Z,28.40
2022-12-25T05:35:18.053Z,28.20
2022-12-25T05:36:18.968Z,29.95
2022-12-25T05:37:20.089Z,29.08
2022-12-25T05:38:20.952Z,27.92
2022-12-25T05:39:22.166Z,27.80
2022-12-25T05:40:23.397Z,27.30
2022-12-25T05:41:27.873Z,27.90
2022-12-25T05:42:33.600Z,26.98
2022-12-25T05:43:34.853Z,27.92
2022-12-25T05:44:35.777Z,27.27
2022-12-25T05:45:37.070Z,29.25
2022-12-25T05:46:37.943Z,28.52
2022-12-25T05:47:39.106Z,27.48
2022-12-25T05:48:39.980Z,26.92
2022-12-25T05:49:41.896Z,27.77
2022-12-25T05:50:42.975Z,27.10
2022-12-25T05:51:44.123Z,27.10
2022-12-25T05:52:44.995Z,26.08
2022-12-25T05:53:46.140Z,27.77
2022-12-25T05:54:47.072Z,27.27
2022-12-25T05:55:48.231Z,26.25
2022-12-25T05:56:49.089Z,27.48
2022-12-25T05:57:50.239Z,26.20
2022-12-25T05:58:51.123Z,26.50
2022-12-25T05:59:52.351Z,27.40
2022-12-25T06:00:53.632Z,26.58
2022-12-25T06:01:55.018Z,25.77
2022-12-25T06:02:56.181Z,25.83
2022-12-25T06:03:57.633Z,27.50
2022-12-25T06:04:59.266Z,27.48
2022-12-25T06:06:02.073Z,27.10
2022-12-25T06:07:02.949Z,26.00
2022-12-25T06:08:04.138Z,26.37
2022-12-25T06:09:05.019Z,23.30
2022-12-25T06:10:07.415Z,24.38
2022-12-25T06:11:08.676Z,25.20
2022-12-25T06:12:09.869Z,26.83
2022-12-25T06:13:10.750Z,24.52
2022-12-25T06:14:12.417Z,24.27
2022-12-25T06:15:13.394Z,24.73
2022-12-25T06:16:14.657Z,24.83
2022-12-25T06:17:15.581Z,25.20
2022-12-25T06:18:16.750Z,25.38
2022-12-25T06:19:17.629Z,23.85
2022-12-25T06:20:20.458Z,23.80
2022-12-25T06:21:21.329Z,24.77
2022-12-25T06:22:22.481Z,23.20
2022-12-25T06:23:23.480Z,24.13
2022-12-25T06:24:24.665Z,24.13
2022-12-25T06:25:25.603Z,24.63
2022-12-25T06:26:27.014Z,23.83
2022-12-25T06:27:27.897Z,23.10
2022-12-25T06:28:29.000Z,21.83
2022-12-25T06:29:29.861Z,23.55
2022-12-25T06:30:31.025Z,23.30
2022-12-25T06:31:31.899Z,21.80
2022-12-25T06:32:33.135Z,19.50
2022-12-25T06:33:34.034Z,21.58
2022-12-25T06:34:35.200Z,21.52
2022-12-25T06:35:38.469Z,22.55
2022-12-25T06:36:39.648Z,23.23
2022-12-25T06:37:40.508Z,22.42
2022-12-25T06:38:41.846Z,21.70
2022-12-25T06:39:43.858Z,22.95
2022-12-25T06:41:45.863Z,22.20
2022-12-25T06:42:47.042Z,22.43
2022-12-25T06:43:48.552Z,21.08
2022-12-25T06:44:50.328Z,21.85
2022-12-25T06:45:52.421Z,20.63
2022-12-25T06:46:54.132Z,19.17
2022-12-25T06:47:55.034Z,19.55
2022-12-25T06:48:57.116Z,19.65
2022-12-25T06:49:57.951Z,18.48
2022-12-25T06:51:00.136Z,20.93
2022-12-25T06:52:01.524Z,19.63
2022-12-25T06:53:02.651Z,17.57
2022-12-25T06:54:03.910Z,19.25
2022-12-25T06:55:05.625Z,18.05
2022-12-25T06:56:07.873Z,18.33
2022-12-25T06:57:09.029Z,17.27
2022-12-25T06:58:09.865Z,16.55
2022-12-25T06:59:11.144Z,15.90
2022-12-25T07:00:12.587Z,17.65
2022-12-25T07:01:16.907Z,17.65
2022-12-25T07:02:18.859Z,16.52
2022-12-25T07:04:24.743Z,14.23
2022-12-25T07:05:25.872Z,15.68
2022-12-25T07:06:27.464Z,16.23
2022-12-25T07:07:28.600Z,16.60
2022-12-25T07:08:29.459Z,16.90
2022-12-25T07:09:30.966Z,16.15
2022-12-25T07:10:31.807Z,15.73
2022-12-25T07:11:32.983Z,16.30
2022-12-25T07:12:33.916Z,15.95
2022-12-25T07:13:35.103Z,16.58
2022-12-25T07:14:35.936Z,16.17
2022-12-25T07:15:37.064Z,15.48
2022-12-25T07:16:38.020Z,16.65
2022-12-25T07:17:39.239Z,16.35
2022-12-25T07:18:40.760Z,17.10
2022-12-25T07:19:45.140Z,16.52
2022-12-25T07:20:46.508Z,17.75
2022-12-25T07:21:48.403Z,17.13
2022-12-25T07:22:49.268Z,17.30
2022-12-25T07:23:51.226Z,17.20
2022-12-25T07:25:53.481Z,15.50
2022-12-25T07:26:54.366Z,16.83
2022-12-25T07:27:55.516Z,16.92
2022-12-25T07:28:56.354Z,16.83
2022-12-25T07:29:57.506Z,16.65
2022-12-25T07:31:02.294Z,16.45
2022-12-25T07:32:03.786Z,16.92
2022-12-25T07:33:04.706Z,16.35
2022-12-25T07:34:05.854Z,16.17
2022-12-25T07:35:07.228Z,15.88
2022-12-25T07:36:12.488Z,16.30
2022-12-25T07:37:14.811Z,14.55
2022-12-25T07:38:15.983Z,17.00
2022-12-25T07:39:17.200Z,16.70
2022-12-25T07:40:18.047Z,17.00
2022-12-25T07:41:19.285Z,16.40
2022-12-25T07:42:24.985Z,15.35
2022-12-25T07:43:27.569Z,16.50
2022-12-25T07:44:28.439Z,15.68
2022-12-25T07:45:29.655Z,15.77
2022-12-25T07:46:30.797Z,15.82
2022-12-25T07:47:31.980Z,16.33
2022-12-25T07:48:32.960Z,16.60
2022-12-25T07:49:34.098Z,17.00
2022-12-25T07:50:34.947Z,16.65
2022-12-25T07:51:36.072Z,15.23
2022-12-25T07:52:43.177Z,13.85
2022-12-25T07:53:45.053Z,15.88
2022-12-25T07:54:46.003Z,15.90
2022-12-25T07:55:47.123Z,15.85
2022-12-25T07:56:49.732Z,16.80
2022-12-25T07:57:52.702Z,16.02
2022-12-25T07:58:53.562Z,16.55
2022-12-25T07:59:54.703Z,16.00
2022-12-25T08:01:00.951Z,16.55
2022-12-25T08:02:02.314Z,17.02
2022-12-25T08:03:03.942Z,16.67
2022-12-25T08:04:05.641Z,15.95
2022-12-25T08:05:06.984Z,16.67
2022-12-25T08:06:08.975Z,16.13
2022-12-25T08:08:11.468Z,14.23
2022-12-25T08:09:12.497Z,17.20
2022-12-25T08:10:13.700Z,16.30
2022-12-25T08:11:14.695Z,16.20
2022-12-25T08:12:15.835Z,15.23
2022-12-25T08:13:16.699Z,15.75
2022-12-25T08:14:17.836Z,15.40
2022-12-25T08:15:18.709Z,16.13
2022-12-25T08:16:20.212Z,13.68
2022-12-25T08:17:22.210Z,15.90
2022-12-25T08:18:29.441Z,15.27
2022-12-25T08:19:31.174Z,15.05
2022-12-25T08:20:32.949Z,14.50
2022-12-25T08:21:34.077Z,15.70
2022-12-25T08:22:35.088Z,15.57
2022-12-25T08:23:37.806Z,15.55
2022-12-25T08:24:38.682Z,14.80
2022-12-25T08:25:39.831Z,15.30
2022-12-25T08:26:40.726Z,15.73
2022-12-25T08:27:41.910Z,14.93
2022-12-25T08:28:42.799Z,13.55
2022-12-25T08:29:44.055Z,12.90
2022-12-25T08:30:44.925Z,13.43
2022-12-25T08:31:46.849Z,12.70
2022-12-25T08:33:51.331Z,13.45
2022-12-25T08:34:52.152Z,12.80
2022-12-25T08:35:53.307Z,15.30
2022-12-25T08:36:54.139Z,13.77
2022-12-25T08:37:55.248Z,14.60
2022-12-25T08:39:02.543Z,14.55
2022-12-25T08:40:04.624Z,14.57
2022-12-25T08:41:05.808Z,13.73
2022-12-25T08:42:06.943Z,13.80
2022-12-25T08:43:08.798Z,13.43
2022-12-25T08:44:11.332Z,14.07
2022-12-25T08:45:12.174Z,14.90
2022-12-25T08:46:13.393Z,14.60
2022-12-25T08:47:14.315Z,15.27
2022-12-25T08:48:15.446Z,14.43
2022-12-25T08:49:16.337Z,13.00
2022-12-25T08:50:17.481Z,14.20
2022-12-25T08:51:19.869Z,12.35
2022-12-25T08:52:21.046Z,12.60
2022-12-25T08:53:22.091Z,13.80
2022-12-25T08:54:24.571Z,14.20
2022-12-25T08:55:25.447Z,14.88
2022-12-25T08:56:27.432Z,13.83
2022-12-25T08:58:29.228Z,15.18
2022-12-25T08:59:30.141Z,14.93
2022-12-25T09:00:31.296Z,13.73
2022-12-25T09:01:32.289Z,15.57
2022-12-25T09:02:33.680Z,14.75
2022-12-25T09:03:34.974Z,15.15
2022-12-25T09:04:36.241Z,15.23
2022-12-25T09:05:37.425Z,14.77
2022-12-25T09:06:38.541Z,15.23
2022-12-25T09:07:39.397Z,14.27
2022-12-25T09:08:47.725Z,14.07
2022-12-25T09:09:50.814Z,14.90
2022-12-25T09:10:51.694Z,14.18
2022-12-25T09:11:52.864Z,15.27
2022-12-25T09:12:53.688Z,15.32
2022-12-25T09:13:54.828Z,14.77
2022-12-25T09:14:55.718Z,16.65
2022-12-25T09:15:56.926Z,16.42
2022-12-25T09:16:57.843Z,16.02
2022-12-25T09:17:59.100Z,15.93
2022-12-25T09:19:00.081Z,16.30
2022-12-25T09:20:01.317Z,14.97
2022-12-25T09:21:03.179Z,15.43
2022-12-25T09:22:04.359Z,15.40
2022-12-25T09:23:09.920Z,16.85
2022-12-25T09:24:14.745Z,16.88
2022-12-25T09:25:16.337Z,18.02
2022-12-25T09:26:18.307Z,17.90
2022-12-25T09:28:20.705Z,14.35
2022-12-25T09:29:21.848Z,18.27
2022-12-25T09:30:22.734Z,19.00
2022-12-25T09:31:23.921Z,17.00
2022-12-25T09:32:24.813Z,17.58
2022-12-25T09:33:25.979Z,19.60
2022-12-25T09:34:26.850Z,18.88
2022-12-25T09:35:28.056Z,19.13
2022-12-25T09:36:29.628Z,18.13
2022-12-25T09:37:30.772Z,19.27
2022-12-25T09:38:32.112Z,19.02
2022-12-25T09:39:33.278Z,19.85
2022-12-25T09:40:34.836Z,19.10
2022-12-25T09:41:38.413Z,19.98
2022-12-25T09:42:39.355Z,19.73
2022-12-25T09:43:42.082Z,18.60
2022-12-25T09:44:44.256Z,21.05
2022-12-25T09:45:45.524Z,20.63
2022-12-25T09:46:49.405Z,20.58
2022-12-25T09:47:52.567Z,18.98
2022-12-25T09:48:58.396Z,19.08
2022-12-25T09:50:02.367Z,19.08
2022-12-25T09:51:05.756Z,21.00
2022-12-25T09:52:09.613Z,17.38
2022-12-25T09:53:14.601Z,20.40
2022-12-25T09:54:18.037Z,20.17
2022-12-25T09:55:21.019Z,18.08
2022-12-25T09:56:24.921Z,20.17
2022-12-25T09:57:26.138Z,20.33
2022-12-25T09:58:28.401Z,20.80
2022-12-25T09:59:29.592Z,19.80
2022-12-25T10:00:32.855Z,21.40
2022-12-25T10:01:37.944Z,21.73
2022-12-25T10:02:48.711Z,20.35
2022-12-25T10:03:58.480Z,22.10
2022-12-25T10:05:07.501Z,22.85
2022-12-25T10:06:12.959Z,21.15
2022-12-25T10:07:17.806Z,23.20
2022-12-25T10:08:24.660Z,23.33
2022-12-25T10:09:32.981Z,23.48
2022-12-25T10:10:45.914Z,23.80
2022-12-25T10:11:52.225Z,23.50
2022-12-25T10:12:58.297Z,23.17
2022-12-25T10:14:06.864Z,23.90
2022-12-25T10:15:18.632Z,26.15
2022-12-25T10:16:25.718Z,25.13
2022-12-25T10:17:32.598Z,26.33
2022-12-25T10:18:43.970Z,26.25
2022-12-25T10:19:48.311Z,25.15
2022-12-25T10:20:50.905Z,25.55
2022-12-25T10:21:54.218Z,26.58
2022-12-25T10:22:58.225Z,26.08
2022-12-25T10:24:05.185Z,24.63
2022-12-25T10:25:14.109Z,24.33
2022-12-25T10:26:16.123Z,23.65
2022-12-25T10:28:21.273Z,22.38
2022-12-25T10:29:22.193Z,20.42
2022-12-25T10:30:24.349Z,22.57
2022-12-25T10:31:26.636Z,23.02
2022-12-25T10:32:27.852Z,24.23
2022-12-25T10:33:28.810Z,23.92
2022-12-25T10:34:30.040Z,24.27
2022-12-25T10:35:32.127Z,23.35
2022-12-25T10:36:33.315Z,23.33
2022-12-25T10:37:34.159Z,21.75
2022-12-25T10:38:36.237Z,22.88
2022-12-25T10:40:47.268Z,19.35
2022-12-25T10:42:03.490Z,19.55
2022-12-25T10:43:08.143Z,18.55
2022-12-25T10:44:13.436Z,17.38
2022-12-25T10:45:15.293Z,17.65
2022-12-25T10:46:16.946Z,16.95
2022-12-25T10:47:22.993Z,17.23
2022-12-25T10:48:25.656Z,17.05
2022-12-25T10:49:28.931Z,16.05
2022-12-25T10:50:29.930Z,15.70
2022-12-25T10:51:32.409Z,15.80
2022-12-25T10:52:33.785Z,15.50
2022-12-25T10:53:37.738Z,14.75
2022-12-25T10:54:38.953Z,14.98
2022-12-25T10:55:39.827Z,15.90
2022-12-25T10:56:41.015Z,15.03
2022-12-25T10:57:44.731Z,15.63
2022-12-25T10:58:46.133Z,15.13
2022-12-25T10:59:48.751Z,14.30
2022-12-25T11:00:54.116Z,14.90
2022-12-25T11:01:55.946Z,14.95
2022-12-25T11:02:57.905Z,14.85
2022-12-25T11:03:59.107Z,15.93
2022-12-25T11:05:01.832Z,16.10
2022-12-25T11:06:03.236Z,15.00
2022-12-25T11:07:05.596Z,14.13
2022-12-25T11:08:17.205Z,13.43
2022-12-25T11:09:18.394Z,13.82
2022-12-25T11:10:20.699Z,15.23
2022-12-25T11:11:21.915Z,14.35
2022-12-25T11:12:25.199Z,14.68
2022-12-25T11:13:27.668Z,14.50
2022-12-25T11:14:29.992Z,13.73
2022-12-25T11:15:33.976Z,14.80
2022-12-25T11:16:36.558Z,13.27
2022-12-25T11:17:37.499Z,14.30
2022-12-25T11:18:44.682Z,12.70
2022-12-25T11:19:51.076Z,14.35
2022-12-25T11:20:53.789Z,14.30
2022-12-25T11:21:55.259Z,14.38
2022-12-25T11:22:56.402Z,14.10
2022-12-25T11:23:58.155Z,13.43
2022-12-25T11:25:10.965Z,13.98
2022-12-25T11:26:12.492Z,14.38
2022-12-25T11:27:19.941Z,12.88
2022-12-25T11:28:20.835Z,13.48
2022-12-25T11:29:24.503Z,11.93
2022-12-25T11:30:25.737Z,13.63
2022-12-25T11:31:35.025Z,12.07
2022-12-25T11:32:39.271Z,12.55
2022-12-25T11:33:42.339Z,13.05
2022-12-25T11:34:44.477Z,12.57
2022-12-25T11:35:52.181Z,12.18
2022-12-25T11:36:53.279Z,12.43
2022-12-25T11:37:54.480Z,10.70
2022-12-25T11:38:55.587Z,12.82
2022-12-25T11:39:56.972Z,12.85
2022-12-25T11:40:58.871Z,12.50
2022-12-25T11:42:04.371Z,11.75
2022-12-25T11:43:08.597Z,12.93
2022-12-25T11:44:17.545Z,12.55
2022-12-25T11:45:20.154Z,12.85
2022-12-25T11:46:22.024Z,12.85
2022-12-25T11:47:26.155Z,12.68
2022-12-25T11:48:29.677Z,12.52
2022-12-25T11:49:32.791Z,11.88
2022-12-25T11:50:35.065Z,12.57
2022-12-25T11:51:38.084Z,13.20
2022-12-25T11:52:40.295Z,12.88
2022-12-25T11:53:43.937Z,13.73
2022-12-25T11:54:48.116Z,13.10
2022-12-25T11:55:54.037Z,12.63
2022-12-25T11:56:56.071Z,13.07
2022-12-25T11:59:00.334Z,12.98
2022-12-25T12:00:06.032Z,12.18
2022-12-25T12:01:13.132Z,13.68
2022-12-25T12:02:21.201Z,12.68
2022-12-25T12:03:26.264Z,12.30
2022-12-25T12:04:31.810Z,14.32
2022-12-25T12:05:38.355Z,15.05
2022-12-25T12:06:44.827Z,14.40
2022-12-25T12:07:51.373Z,16.65
2022-12-25T12:08:56.519Z,15.18
2022-12-25T12:10:00.002Z,15.13
2022-12-25T12:11:15.261Z,15.43
2022-12-25T12:12:18.353Z,13.30
2022-12-25T12:13:26.346Z,13.45
2022-12-25T12:14:33.683Z,14.00
2022-12-25T12:15:39.278Z,14.60
2022-12-25T12:16:40.996Z,12.60
2022-12-25T12:17:42.805Z,12.93
2022-12-25T12:18:50.083Z,13.38
2022-12-25T12:19:52.067Z,13.90
2022-12-25T12:21:00.510Z,13.20
2022-12-25T12:22:03.497Z,13.55
2022-12-25T12:23:10.676Z,13.43
2022-12-25T12:24:13.319Z,14.18
2022-12-25T12:25:16.265Z,13.23
2022-12-25T12:26:18.931Z,13.80
2022-12-25T12:27:22.128Z,12.02
2022-12-25T12:28:26.091Z,12.48
2022-12-25T12:29:28.485Z,13.80
2022-12-25T12:30:30.838Z,13.13
2022-12-25T12:31:39.354Z,14.40
2022-12-25T12:32:42.557Z,14.57
2022-12-25T12:33:48.839Z,13.93
2022-12-25T12:34:49.897Z,13.63
2022-12-25T12:35:51.077Z,13.43
2022-12-25T12:36:53.863Z,13.23
2022-12-25T12:37:56.709Z,13.50
2022-12-25T12:38:57.893Z,14.57
2022-12-25T12:39:59.341Z,12.65
2022-12-25T12:41:01.033Z,13.98
2022-12-25T12:42:02.346Z,14.80
2022-12-25T12:43:04.899Z,13.55
2022-12-25T12:44:06.935Z,12.88
2022-12-25T12:46:15.840Z,13.07
2022-12-25T12:47:29.848Z,13.82
2022-12-25T12:48:37.216Z,13.40
2022-12-25T12:49:38.782Z,13.90
2022-12-25T12:50:40.904Z,15.05
2022-12-25T12:51:41.902Z,14.05
2022-12-25T12:52:43.057Z,13.63
2022-12-25T12:53:44.234Z,15.32
2022-12-25T12:54:51.821Z,15.23
2022-12-25T12:55:53.024Z,15.13
2022-12-25T12:56:54.522Z,15.85
2022-12-25T12:57:57.558Z,16.45
2022-12-25T12:58:58.428Z,16.17
2022-12-25T13:00:06.502Z,16.67
2022-12-25T13:01:18.878Z,16.38
2022-12-25T13:02:31.442Z,16.63
2022-12-25T13:03:38.976Z,15.98
2022-12-25T13:04:47.724Z,16.77
2022-12-25T13:05:50.117Z,16.95
2022-12-25T13:06:55.050Z,16.85
2022-12-25T13:07:59.921Z,17.17
2022-12-25T13:09:06.088Z,17.17
2022-12-25T13:10:11.620Z,17.20
2022-12-25T13:11:17.059Z,16.63
2022-12-25T13:12:19.534Z,15.65
2022-12-25T13:13:22.672Z,14.82
2022-12-25T13:14:24.102Z,15.23
2022-12-25T13:15:28.109Z,15.10
2022-12-25T13:16:31.232Z,16.35
2022-12-25T13:17:32.137Z,16.50
2022-12-25T13:18:33.482Z,17.60
2022-12-25T13:19:35.917Z,17.85
2022-12-25T13:20:40.496Z,18.48
2022-12-25T13:21:51.198Z,19.38
2022-12-25T13:22:53.034Z,18.02
2022-12-25T13:23:56.111Z,19.02
2022-12-25T13:24:57.927Z,18.63
2022-12-25T13:26:00.398Z,19.10
2022-12-25T13:27:01.834Z,18.80
2022-12-25T13:28:04.166Z,19.67
2022-12-25T13:29:09.621Z,18.77
2022-12-25T13:30:13.597Z,17.27
2022-12-25T13:32:19.785Z,17.30
2022-12-25T13:33:21.452Z,16.02
2022-12-25T13:34:25.392Z,15.65
2022-12-25T13:35:26.359Z,16.58
2022-12-25T13:36:30.224Z,16.90
2022-12-25T13:37:31.107Z,16.15
2022-12-25T13:38:32.301Z,15.53
2022-12-25T13:39:33.563Z,15.30
2022-12-25T13:40:34.767Z,14.85
2022-12-25T13:41:58.916Z,15.15
2022-12-25T13:43:00.452Z,16.08
2022-12-25T13:44:02.028Z,15.30
2022-12-25T13:45:05.629Z,15.27
2022-12-25T13:46:06.758Z,14.23
2022-12-25T13:47:13.667Z,15.38
2022-12-25T13:48:15.172Z,14.48
2022-12-25T13:49:17.121Z,15.82
2022-12-25T13:50:21.152Z,14.65
2022-12-25T13:51:22.027Z,15.30
2022-12-25T13:52:26.982Z,14.93
2022-12-25T13:53:27.933Z,15.77
2022-12-25T13:54:29.072Z,15.43
2022-12-25T13:55:30.137Z,15.82
2022-12-25T13:56:31.662Z,14.47
2022-12-25T13:57:34.093Z,15.68
2022-12-25T13:58:36.468Z,14.75
2022-12-25T13:59:37.676Z,14.68
2022-12-25T14:00:45.035Z,14.60
2022-12-25T14:01:46.587Z,16.27
2022-12-25T14:02:48.181Z,16.85
2022-12-25T14:03:49.182Z,16.83
2022-12-25T14:04:50.361Z,15.20
2022-12-25T14:05:55.351Z,16.55
2022-12-25T14:06:56.539Z,16.23
2022-12-25T14:07:59.442Z,15.18